createdAt,value
2022-10-31T00:03:02.183Z,6.05
2022-10-31T00:06:05.908Z,5.80
2022-10-31T00:09:10.776Z,5.33
2022-10-31T00:12:13.429Z,5.70
2022-10-31T00:15:16.103Z,6.18
2022-10-31T00:18:21.803Z,6.47
2022-10-31T00:21:31.184Z,6.03
2022-10-31T00:24:34.499Z,6.73
2022-10-31T00:27:37.556Z,6.38
2022-10-31T00:30:48.794Z,5.85
2022-10-31T00:33:52.611Z,6.68
2022-10-31T00:37:03.306Z,5.87
2022-10-31T00:40:12.589Z,6.43
2022-10-31T00:43:15.548Z,6.90
2022-10-31T00:46:19.077Z,6.85
2022-10-31T00:49:25.117Z,5.93
2022-10-31T00:52:42.160Z,5.70
2022-10-31T00:55:50.531Z,6.33
2022-10-31T00:58:54.862Z,6.53
2022-10-31T01:01:58.105Z,6.30
2022-10-31T01:05:01.023Z,6.40
2022-10-31T01:08:03.751Z,6.00
2022-10-31T01:11:13.987Z,6.27
2022-10-31T01:14:16.937Z,7.47
2022-10-31T01:17:23.096Z,6.18
2022-10-31T01:20:30.747Z,6.95
2022-10-31T01:23:35.175Z,5.70
2022-10-31T01:26:39.931Z,6.77
2022-10-31T01:29:42.651Z,6.40
2022-10-31T01:32:45.386Z,6.72
2022-10-31T01:35:47.993Z,6.20
2022-10-31T01:38:54.385Z,6.33
2022-10-31T01:41:57.239Z,6.17
2022-10-31T01:45:03.029Z,6.45
2022-10-31T01:48:34.453Z,6.53
2022-10-31T01:52:02.954Z,6.30
2022-10-31T01:55:27.672Z,5.80
2022-10-31T01:58:33.838Z,6.10
2022-10-31T02:01:38.951Z,6.20
2022-10-31T02:04:42.547Z,6.50
2022-10-31T02:08:20.949Z,6.32
2022-10-31T02:11:27.093Z,6.47
2022-10-31T02:14:35.374Z,7.47
2022-10-31T02:17:39.983Z,6.40
2022-10-31T02:20:45.536Z,6.68
2022-10-31T02:24:00.202Z,6.53
2022-10-31T02:27:39.125Z,7.30
2022-10-31T02:31:04.993Z,6.73
2022-10-31T02:34:27.172Z,7.53
2022-10-31T02:37:38.822Z,6.00
2022-10-31T02:40:54.163Z,6.60
2022-10-31T02:44:37.267Z,5.90
2022-10-31T02:47:46.201Z,5.80
2022-10-31T02:51:02.269Z,6.30
2022-10-31T02:54:05.210Z,6.13
2022-10-31T02:57:08.797Z,6.50
2022-10-31T03:00:12.042Z,6.10
2022-10-31T03:03:25.380Z,6.43
2022-10-31T03:06:40.023Z,5.70
2022-10-31T03:09:53.092Z,6.57
2022-10-31T03:13:30.615Z,6.40
2022-10-31T03:16:51.090Z,5.60
2022-10-31T03:19:56.347Z,6.13
2022-10-31T03:23:02.175Z,5.78
2022-10-31T03:26:09.318Z,5.82
2022-10-31T03:29:17.774Z,6.25
2022-10-31T03:32:35.646Z,6.10
2022-10-31T03:35:45.537Z,6.33
2022-10-31T03:38:48.880Z,6.35
2022-10-31T03:42:22.882Z,5.88
2022-10-31T03:45:31.218Z,5.90
2022-10-31T03:48:37.621Z,6.07
2022-10-31T03:52:12.307Z,5.93
2022-10-31T03:55:21.704Z,6.25
2022-10-31T03:58:34.367Z,5.68
2022-10-31T04:01:58.067Z,5.90
2022-10-31T04:05:15.251Z,5.90
2022-10-31T04:08:33.530Z,6.43
2022-10-31T04:11:41.555Z,5.90
2022-10-31T04:15:11.281Z,5.20
2022-10-31T04:18:18.989Z,5.10
2022-10-31T04:21:37.612Z,5.37
2022-10-31T04:24:46.795Z,6.37
2022-10-31T04:27:52.653Z,5.78
2022-10-31T04:31:03.633Z,5.63
2022-10-31T04:34:14.381Z,5.70
2022-10-31T04:37:18.352Z,5.40
2022-10-31T04:40:21.164Z,5.90
2022-10-31T04:43:56.682Z,6.32
2022-10-31T04:46:59.633Z,7.15
2022-10-31T04:50:07.278Z,5.65
2022-10-31T04:53:12.829Z,6.53
2022-10-31T04:56:38.198Z,5.60
2022-10-31T04:59:55.881Z,6.20
2022-10-31T05:03:03.490Z,5.55
2022-10-31T05:06:07.453Z,5.82
2022-10-31T05:09:11.268Z,6.33
2022-10-31T05:12:15.389Z,5.30
2022-10-31T05:15:36.357Z,6.22
2022-10-31T05:19:08.387Z,6.03
2022-10-31T05:22:37.372Z,5.90
2022-10-31T05:25:41.655Z,6.00
2022-10-31T05:28:45.137Z,6.07
2022-10-31T05:31:48.914Z,5.38
2022-10-31T05:35:15.360Z,5.50
2022-10-31T05:38:44.597Z,5.45
2022-10-31T05:41:56.210Z,5.90
2022-10-31T05:45:02.918Z,5.50
2022-10-31T05:48:20.503Z,5.68
2022-10-31T05:51:42.261Z,5.28
2022-10-31T05:54:45.796Z,5.43
2022-10-31T05:57:48.506Z,6.00
2022-10-31T06:00:51.138Z,5.47
2022-10-31T06:03:53.803Z,6.32
2022-10-31T06:06:59.390Z,6.32
2022-10-31T06:10:03.940Z,6.32
2022-10-31T06:13:07.742Z,5.47
2022-10-31T06:16:19.250Z,5.53
2022-10-31T06:19:22.724Z,5.53
2022-10-31T06:22:25.409Z,5.35
2022-10-31T06:25:29.297Z,5.70
2022-10-31T06:28:31.946Z,6.03
2022-10-31T06:31:55.804Z,5.93
2022-10-31T06:34:58.713Z,5.07
2022-10-31T06:38:01.888Z,5.57
2022-10-31T06:41:14.392Z,5.22
2022-10-31T06:44:24.166Z,5.40
2022-10-31T06:47:45.929Z,5.97
2022-10-31T06:51:03.531Z,5.68
2022-10-31T06:54:07.396Z,5.60
2022-10-31T06:57:13.043Z,5.10
2022-10-31T07:00:16.659Z,5.47
2022-10-31T07:03:25.342Z,5.37
2022-10-31T07:06:28.129Z,5.10
2022-10-31T07:09:31.348Z,5.18
2022-10-31T07:12:37.926Z,6.00
2022-10-31T07:15:42.428Z,6.10
2022-10-31T07:18:45.131Z,5.60
2022-10-31T07:21:48.894Z,5.65
2022-10-31T07:24:51.998Z,5.32
2022-10-31T07:27:55.080Z,4.97
2022-10-31T07:31:02.096Z,5.30
2022-10-31T07:34:05.070Z,5.40
2022-10-31T07:37:28.659Z,5.43
2022-10-31T07:40:32.363Z,5.35
2022-10-31T07:43:35.180Z,4.85
2022-10-31T07:46:53.110Z,4.67
2022-10-31T07:50:22.127Z,5.40
2022-10-31T07:53:54.099Z,5.40
2022-10-31T07:57:01.456Z,6.40
2022-10-31T08:00:09.982Z,6.00
2022-10-31T08:03:19.720Z,4.93
2022-10-31T08:06:41.408Z,5.90
2022-10-31T08:09:56.558Z,5.25
2022-10-31T08:13:09.359Z,5.70
2022-10-31T08:16:14.527Z,5.95
2022-10-31T08:19:28.472Z,5.43
2022-10-31T08:22:32.494Z,5.70
2022-10-31T08:25:40.872Z,5.35
2022-10-31T08:28:43.961Z,5.07
2022-10-31T08:31:46.775Z,5.22
2022-10-31T08:35:27.822Z,5.13
2022-10-31T08:38:52.000Z,5.20
2022-10-31T08:41:54.886Z,5.43
2022-10-31T08:44:57.670Z,5.03
2022-10-31T08:48:05.955Z,5.20
2022-10-31T08:51:10.666Z,5.60
2022-10-31T08:54:13.635Z,5.13
2022-10-31T08:57:36.355Z,5.75
2022-10-31T09:00:40.570Z,4.80
2022-10-31T09:03:50.781Z,5.38
2022-10-31T09:10:16.543Z,5.37
2022-10-31T09:13:24.231Z,4.82
2022-10-31T09:16:53.136Z,5.60
2022-10-31T09:19:59.967Z,6.35
2022-10-31T09:23:11.640Z,5.50
2022-10-31T09:26:27.015Z,5.27
2022-10-31T09:29:40.035Z,5.68
2022-10-31T09:32:47.610Z,5.35
2022-10-31T09:35:50.628Z,5.05
2022-10-31T09:38:57.862Z,5.30
2022-10-31T09:42:46.178Z,6.20
2022-10-31T09:46:11.177Z,5.50
2022-10-31T09:49:27.705Z,5.15
2022-10-31T09:53:46.173Z,5.35
2022-10-31T10:06:41.985Z,7.35
2022-10-31T10:10:36.516Z,5.13
2022-10-31T10:14:28.906Z,5.28
2022-10-31T10:17:48.702Z,5.15
2022-10-31T10:21:13.913Z,5.60
2022-10-31T10:24:57.141Z,5.20
2022-10-31T10:28:39.663Z,6.28
2022-10-31T10:31:47.035Z,5.07
2022-10-31T10:34:58.843Z,5.68
2022-10-31T10:38:42.674Z,5.43
2022-10-31T10:42:08.463Z,5.95
2022-10-31T10:45:38.549Z,5.47
2022-10-31T10:49:00.255Z,4.90
2022-10-31T10:52:43.461Z,6.13
2022-10-31T10:56:03.480Z,5.23
2022-10-31T10:59:07.847Z,5.00
2022-10-31T11:02:32.645Z,5.97
2022-10-31T11:05:40.275Z,5.30
2022-10-31T11:08:43.047Z,5.25
2022-10-31T11:11:46.010Z,5.00
2022-10-31T11:15:00.539Z,5.22
2022-10-31T11:18:03.536Z,5.75
2022-10-31T11:21:06.917Z,5.32
2022-10-31T11:24:12.197Z,5.15
2022-10-31T11:27:19.463Z,5.53
2022-10-31T11:30:22.116Z,5.10
2022-10-31T11:33:34.772Z,5.65
2022-10-31T11:36:40.211Z,5.13
2022-10-31T11:39:45.975Z,4.78
2022-10-31T11:42:50.785Z,5.80
2022-10-31T11:45:53.565Z,5.15
2022-10-31T11:48:57.026Z,5.05
2022-10-31T11:52:20.145Z,4.47
2022-10-31T11:55:36.172Z,5.60
2022-10-31T11:58:41.905Z,4.80
2022-10-31T12:01:49.985Z,5.18
2022-10-31T12:04:59.122Z,4.72
2022-10-31T12:08:04.788Z,5.75
2022-10-31T12:11:40.270Z,4.82
2022-10-31T12:15:05.557Z,5.47
2022-10-31T12:18:22.985Z,5.18
2022-10-31T12:21:54.419Z,5.93
2022-10-31T12:28:59.013Z,5.68
2022-10-31T12:32:34.333Z,5.70
2022-10-31T12:35:56.925Z,5.85
2022-10-31T12:39:11.546Z,5.15
2022-10-31T12:42:22.972Z,6.32
2022-10-31T12:45:47.286Z,5.85
2022-10-31T12:48:58.828Z,5.47
2022-10-31T12:52:04.374Z,4.80
2022-10-31T12:55:37.534Z,5.43
2022-10-31T12:58:47.955Z,5.88
2022-10-31T13:02:16.567Z,5.18
2022-10-31T13:05:33.040Z,5.17
2022-10-31T13:08:42.997Z,5.57
2022-10-31T13:12:03.472Z,5.40
2022-10-31T13:15:17.507Z,5.88
2022-10-31T13:18:36.342Z,4.82
2022-10-31T13:22:01.663Z,5.63
2022-10-31T13:25:14.815Z,5.38
2022-10-31T13:28:31.208Z,5.10
2022-10-31T13:31:34.617Z,5.13
2022-10-31T13:34:52.854Z,5.43
2022-10-31T13:38:21.865Z,5.50
2022-10-31T13:41:51.109Z,5.30
2022-10-31T13:44:53.798Z,5.05
2022-10-31T13:48:02.216Z,6.18
2022-10-31T13:51:11.319Z,4.50
2022-10-31T13:54:32.715Z,5.50
2022-10-31T13:57:45.572Z,4.75
2022-10-31T14:01:11.275Z,5.10
2022-10-31T14:04:24.722Z,5.80
2022-10-31T14:07:30.193Z,5.57
2022-10-31T14:10:47.267Z,5.30
2022-10-31T14:13:50.226Z,5.50
2022-10-31T14:16:58.565Z,5.75
2022-10-31T14:20:26.480Z,6.32
2022-10-31T14:23:32.145Z,6.00
2022-10-31T14:26:37.610Z,6.00
2022-10-31T14:29:40.627Z,6.63
2022-10-31T14:32:44.712Z,5.30
2022-10-31T14:36:29.979Z,5.40
2022-10-31T14:39:51.056Z,6.20
2022-10-31T14:43:12.962Z,5.20
2022-10-31T14:46:18.508Z,5.75
2022-10-31T14:49:46.884Z,5.88
2022-10-31T14:52:53.402Z,6.47
2022-10-31T14:56:01.386Z,5.63
2022-10-31T14:59:18.928Z,5.73
2022-10-31T15:02:38.154Z,6.00
2022-10-31T15:05:52.310Z,6.68
2022-10-31T15:08:56.149Z,5.50
2022-10-31T15:12:17.794Z,6.47
2022-10-31T15:15:27.898Z,6.27
2022-10-31T15:18:30.760Z,7.68
2022-10-31T15:21:49.213Z,6.47
2022-10-31T15:25:02.365Z,5.72
2022-10-31T15:28:15.150Z,7.15
2022-10-31T15:31:18.422Z,6.37
2022-10-31T15:34:33.608Z,6.30
2022-10-31T15:37:36.353Z,6.00
2022-10-31T15:40:54.720Z,7.30
2022-10-31T15:44:04.468Z,7.40
2022-10-31T15:47:22.324Z,6.40
2022-10-31T15:50:41.705Z,6.88
2022-10-31T15:53:53.226Z,7.38
2022-10-31T15:56:56.001Z,7.20
2022-10-31T15:59:59.491Z,6.30
2022-10-31T16:03:26.575Z,6.50
2022-10-31T16:06:29.963Z,6.30
2022-10-31T16:09:32.805Z,7.03
2022-10-31T16:12:48.856Z,6.90
2022-10-31T16:16:08.834Z,7.72
2022-10-31T16:19:32.133Z,6.60
2022-10-31T16:22:37.646Z,6.50
2022-10-31T16:25:40.755Z,7.03
2022-10-31T16:29:03.190Z,5.95
2022-10-31T16:32:36.104Z,6.10
2022-10-31T16:35:44.040Z,7.43
2022-10-31T16:38:49.662Z,6.53
2022-10-31T16:41:58.239Z,7.65
2022-10-31T16:45:06.785Z,6.30
2022-10-31T16:48:15.846Z,5.95
2022-10-31T16:51:18.882Z,7.47
2022-10-31T16:54:21.926Z,7.97
2022-10-31T16:57:30.032Z,8.00
2022-10-31T17:00:32.948Z,7.07
2022-10-31T17:03:36.827Z,7.80
2022-10-31T17:06:39.893Z,7.60
2022-10-31T17:09:43.367Z,7.80
2022-10-31T17:12:48.999Z,8.73
2022-10-31T17:15:55.486Z,7.53
2022-10-31T17:18:58.532Z,8.13
2022-10-31T17:22:03.290Z,8.83
2022-10-31T17:25:07.236Z,7.80
2022-10-31T17:28:14.122Z,8.75
2022-10-31T17:31:39.435Z,8.77
2022-10-31T17:34:42.593Z,8.25
2022-10-31T17:37:47.425Z,7.13
2022-10-31T17:40:54.864Z,8.20
2022-10-31T17:43:59.281Z,9.43
2022-10-31T17:47:02.944Z,8.80
2022-10-31T17:50:07.345Z,11.30
2022-10-31T17:53:10.791Z,8.13
2022-10-31T17:56:14.173Z,9.50
2022-10-31T17:59:18.673Z,8.05
2022-10-31T18:02:27.280Z,8.13
2022-10-31T18:05:35.471Z,8.65
2022-10-31T18:08:46.279Z,8.80
2022-10-31T18:11:50.089Z,8.80
2022-10-31T18:14:54.080Z,8.57
2022-10-31T18:17:57.737Z,9.65
2022-10-31T18:21:02.818Z,8.73
2022-10-31T18:24:06.988Z,9.23
2022-10-31T18:27:11.022Z,7.82
2022-10-31T18:30:14.837Z,9.07
2022-10-31T18:33:18.953Z,8.15
2022-10-31T18:36:23.074Z,8.75
2022-10-31T18:39:26.658Z,9.93
2022-10-31T18:42:29.994Z,9.88
2022-10-31T18:45:46.415Z,8.85
2022-10-31T18:48:51.759Z,8.52
2022-10-31T18:51:56.476Z,8.77
2022-10-31T18:55:00.685Z,9.13
2022-10-31T18:58:04.903Z,9.38
2022-10-31T19:01:12.851Z,8.60
2022-10-31T19:04:17.795Z,8.43
2022-10-31T19:07:21.071Z,9.60
2022-10-31T19:10:24.553Z,9.93
2022-10-31T19:13:47.451Z,9.77
2022-10-31T19:16:52.502Z,9.32
2022-10-31T19:19:57.022Z,9.82
2022-10-31T19:23:01.876Z,9.77
2022-10-31T19:26:06.090Z,8.57
2022-10-31T19:29:11.051Z,9.30
2022-10-31T19:32:15.687Z,9.20
2022-10-31T19:35:19.557Z,8.40
2022-10-31T19:38:24.954Z,10.23
2022-10-31T19:41:30.167Z,9.40
2022-10-31T19:44:34.885Z,9.57
2022-10-31T19:47:39.326Z,8.80
2022-10-31T19:50:43.242Z,10.55
2022-10-31T19:53:47.689Z,11.63
2022-10-31T19:56:52.315Z,9.23
2022-10-31T19:59:58.609Z,10.57
2022-10-31T20:03:11.300Z,9.57
2022-10-31T20:06:25.576Z,10.60
2022-10-31T20:09:39.750Z,10.48
2022-10-31T20:12:54.221Z,8.83
2022-10-31T20:16:00.822Z,9.85
2022-10-31T20:19:05.274Z,9.73
2022-10-31T20:22:09.017Z,10.43
2022-10-31T20:25:13.259Z,10.25
2022-10-31T20:28:17.993Z,8.70
2022-10-31T20:31:25.689Z,10.73
2022-10-31T20:34:30.338Z,8.80
2022-10-31T20:37:33.940Z,10.20
2022-10-31T20:40:37.856Z,11.05
2022-10-31T20:43:41.851Z,11.30
2022-10-31T20:46:45.275Z,11.07
2022-10-31T20:49:48.577Z,10.88
2022-10-31T20:52:54.746Z,11.43
2022-10-31T20:56:15.843Z,11.02
2022-10-31T20:59:20.095Z,13.47
2022-10-31T21:02:23.868Z,11.82
2022-10-31T21:05:27.115Z,11.27
2022-10-31T21:08:31.642Z,11.52
2022-10-31T21:11:35.270Z,11.20
2022-10-31T21:14:38.089Z,11.17
2022-10-31T21:17:41.937Z,11.32
2022-10-31T21:20:47.947Z,12.60
2022-10-31T21:23:58.706Z,12.07
2022-10-31T21:27:02.796Z,12.23
2022-10-31T21:30:06.195Z,13.27
2022-10-31T21:33:09.012Z,13.15
2022-10-31T21:36:12.650Z,13.63
2022-10-31T21:39:15.290Z,13.07
2022-10-31T21:42:21.389Z,10.80
2022-10-31T21:45:24.536Z,12.10
2022-10-31T21:48:29.109Z,12.57
2022-10-31T21:51:34.389Z,13.07
2022-10-31T21:54:37.777Z,13.10
2022-10-31T21:57:40.423Z,16.23
2022-10-31T22:00:42.973Z,14.83
2022-10-31T22:03:45.873Z,15.35
2022-10-31T22:06:48.745Z,15.77
2022-10-31T22:09:51.546Z,14.73
2022-10-31T22:12:54.371Z,15.57
2022-10-31T22:16:02.987Z,18.00
2022-10-31T22:19:07.442Z,17.15
2022-10-31T22:22:12.971Z,16.17
2022-10-31T22:25:18.982Z,14.13
2022-10-31T22:28:21.626Z,14.63
2022-10-31T22:31:24.800Z,14.33
2022-10-31T22:34:27.428Z,16.52
2022-10-31T22:37:30.215Z,18.02
2022-10-31T22:40:33.648Z,14.98
2022-10-31T22:43:36.349Z,18.95
2022-10-31T22:46:40.395Z,15.53
2022-10-31T22:49:44.076Z,18.52
2022-10-31T22:52:46.962Z,15.90
2022-10-31T22:55:50.621Z,17.13
2022-10-31T22:58:54.108Z,13.98
2022-10-31T23:01:56.931Z,15.00
2022-10-31T23:04:59.747Z,16.58
2022-10-31T23:08:02.603Z,14.60
2022-10-31T23:11:19.323Z,17.92
2022-10-31T23:14:21.938Z,17.63
2022-10-31T23:17:24.626Z,19.67
2022-10-31T23:20:27.498Z,17.90
2022-10-31T23:23:34.768Z,15.68
2022-10-31T23:26:56.641Z,19.90
2022-10-31T23:29:59.998Z,21.60
2022-10-31T23:33:02.896Z,16.30
2022-10-31T23:36:06.074Z,17.73
2022-10-31T23:39:08.892Z,19.33
2022-10-31T23:42:11.887Z,18.27
2022-10-31T23:45:15.784Z,20.13
2022-10-31T23:48:18.584Z,18.33
2022-10-31T23:51:21.806Z,20.08
2022-10-31T23:54:25.348Z,20.55
2022-10-31T23:57:28.160Z,20.38
